This is the latest recevied weather packets stored in our database for station/object JE3XST-13. If no packets are shown the sender has not sent any weather packets the latest 10 day(s).
| Time | Temp. | Humidity | Pressure | Rain* | Wind** | Luminosity | Snow |
|---|---|---|---|---|---|---|---|
| 1787585245 | 26.67° C | 89% | 1012.9 hPa | 0 mm | - | - | - |
| 1787583445 | 26.67° C | 89% | 1013.2 hPa | 0 mm | - | - | - |
| 1787581644 | 26.67° C | 88% | 1013.1 hPa | 0 mm | - | - | - |
| 1787579844 | 26.67° C | 88% | 1012.9 hPa | 0 mm | - | - | - |
| 1787578043 | 26.67° C | 88% | 1012.8 hPa | 0 mm | - | - | - |
| 1787576241 | 27.78° C | 87% | 1012.7 hPa | 0 mm | - | - | - |
| 1787574441 | 27.22° C | 89% | 1012.8 hPa | 0 mm | - | - | - |
| 1787572640 | 27.22° C | 88% | 1013 hPa | 0 mm | - | - | - |
| 1787570839 | 27.22° C | 88% | 1012.8 hPa | 0 mm | - | - | - |
| 1787569037 | 27.22° C | 88% | 1012.5 hPa | 0 mm | - | - | - |
| 1787567237 | 27.78° C | 87% | 1011.9 hPa | 0 mm | - | - | - |
| 1787565436 | 28.33° C | 87% | 1011.6 hPa | 0 mm | - | - | - |
| 1787563636 | 28.89° C | 86% | 1011.6 hPa | 0 mm | - | - | - |
| 1787562002 | 29.44° C | 84% | 1011.4 hPa | 1.02 mm | - | - | - |
| 1787560200 | 28.33° C | 83% | 1011.3 hPa | 3.05 mm | - | - | - |
| 1787558399 | 30° C | 71% | 1011.1 hPa | 2.03 mm | - | - | - |
| 1787556599 | 35.56° C | 53% | 1010.8 hPa | 0 mm | - | - | - |
| 1787554798 | 36.67° C | 53% | 1010.1 hPa | 0 mm | - | - | - |
| 1787552996 | 38.33° C | 44% | 1010.1 hPa | 0 mm | - | - | - |
| 1787551194 | 37.78° C | 46% | 1010.3 hPa | 0 mm | - | - | - |
| 1787549393 | 37.22° C | 49% | 1010.5 hPa | 0 mm | - | - | - |
| 1787547591 | 37.22° C | 50% | 1010.8 hPa | 0 mm | - | - | - |
| 1787545791 | 37.22° C | 51% | 1011.2 hPa | 0 mm | - | - | - |
| 1787543819 | 36.67° C | 54% | 1011.8 hPa | 0 mm | - | - | - |
| 1787542017 | 36.11° C | 56% | 1012.1 hPa | 0 mm | - | - | - |
* Rain latest hour (hover to see other rain measurements)
** Current wind speed in m/s (hover to see current wind gust speed)